Kempton Park, South Africa
Current Conditions -  °F | °C
As of 8:00 AM on Thursday 23 Oct 2014 (Local Time) from FAOR Reporting Station
Scattered Clouds Scattered Clouds  
Wind Chill: 59°   Ceiling: Unl
Heat Index: 59°   Visibility: 6mi
Dew Point: 50°   Wind: 13mph
Humidity: 72%   Direction: 30°NNE
Pressure: 30.27"   Gusts: NA
Location:  26.11°S, 28.24°E
Report Text: FAOR 230600Z 03011KT 9999 SCT012 15/10 Q1025 NOSIG
Loading
Personal Weather Stations






























Interactive Weather Map
Tropical Storm Tracking
New forecast layout! Learn more

10-Day Weather Forecast

Advertisements
Track Severe Weather on mobile